EDLV

Niederrhein Airport

Weeze, Germany
METAR EDLV 160520Z 14010KT 7000 BKN008 M00/M02 Q1009
Observed Flight Rules
Dec-16 @ 05:20 UTC (31 minutes ago) Instrument Flight Rules
Wind Visibility Clouds
140° at 10 knots 7,001 meters
  • Broken at 800' AGL
Temperatures Readings
Current 0°C / 32°F
Dewpoint -2°C / 28°F
Humidity 87%
Altimeter 29.79" Hg
Pressure 1009 hPa
Elevation 32
METAR EDLV 160520Z 14010KT 7000 BKN008 M00/M02 Q1009
Observed Flight Rules
Dec-16 @ 05:20 UTC
(31 minutes ago)
IFR
Wind Visibility
140° at 10 knots 7,001 meters
Clouds
  • Broken at 800' AGL
Temperature Dewpoint
0°C / 32°F -2°C / 28°F
Humidity Altimeter Pressure
87% 29.79" Hg 1009 hPa